메인 페이지
METAR-TAF:

METAR-TAF

공항 :

Slidell Airport

Slidell, 루이지애나, 미국

위도: 30-20-35N, 경도: 089-49-19W, 고도: 9m

현재 날씨관측

예보는 11분 전, 14:53시(UTC)에 발표되었습니다.
8kt
온도 23°C
습도 83%
기압 1012 hPa
시정: 16.1km
고도 900ft 상공 구름 조금
고도 4300ft 상공 구름 보통
고도 11000ft 상공 흐림
약한비

METAR: KASD 251453Z AUTO 18008KT 10SM -RA FEW009 SCT043 OVC110 23/20 A2987 RMK AO2 LTG DSNT SW AND W RAB42 SLP115 P0000 60000 T02280200 51014

시각: 10:04 (15:04 UTC)

예보

예보는 3 시간 27분 전, 11:37시(UTC)에 발표되었습니다.
예보 대상 시간: 25일 12시부터 26일 12시까지 (UTC)
남남동9kt, 순간 최대 풍속 18kt
시정: 10km
고도 700ft 상공 구름 많음
일시적
25일 15시부터 25일 16시까지 (UTC)
시정: 6.4km
고도 1500ft 상공 흐림, 적란운.
뇌우, 강한비
25일 1600시부터 (UTC)
10kt
시정: 10km
고도 2000ft 상공 구름 보통
고도 3000ft 상공 흐림
강한소나기
일시적
25일 20시부터 25일 21시까지 (UTC)
시정: 3.2km
고도 900ft 상공 흐림, 적란운.
뇌우, 강한비
25일 2300시부터 (UTC)
남서7kt
시정: 10km
고도 1500ft 상공 구름 보통, 적란운.
고도 4500ft 상공 구름 많음
강한소나기, 시계 내 뇌우
26일 0300시부터 (UTC)
6kt
시정: 10km
고도 2000ft 상공 구름 조금
고도 11000ft 상공 구름 조금

TAF: KASD 251137Z 2512/2612 15009G18KT P6SM BKN007 TEMPO 2515/2516 4SM +TSRA OVC015CB FM251600 17010KT P6SM +SHRA SCT020 OVC030 TEMPO 2520/2521 2SM +TSRA OVC009CB FM252300 22007KT P6SM +SHRA VCTS SCT015CB BKN045 FM260300 26006KT P6SM FEW020 FEW110

4,000개 이상의 공항 관측 자료 및 예보 (METAR 및 TAF 보고).

지도상에서 검색 가능한 기상관측소가 노란 점과 빨간 점으로 표시되어 있습니다.

기상관측소 명을 보려면 표시 위로 마우스를 이동하세요.

날씨 관측과 예보를 보려면 클릭하세요.

지도 변경 : 확대하려면 엑스 표시가 있는 녹색 버튼, 축소하려면 빼기 표시가 있는 녹색 버튼, 다음 페이지의 지도를 보려면 녹색 화살표를 클릭하세요.


METAR-TAF: